createdAt,value
2022-08-05T00:01:35.574Z,2.55
2022-08-05T00:04:05.082Z,2.30
2022-08-05T00:06:36.653Z,2.33
2022-08-05T00:09:13.169Z,2.17
2022-08-05T00:11:49.637Z,2.03
2022-08-05T00:14:27.540Z,1.92
2022-08-05T00:16:57.833Z,3.55
2022-08-05T00:19:33.086Z,2.40
2022-08-05T00:22:03.160Z,2.13
2022-08-05T00:27:04.646Z,2.45
2022-08-05T00:29:38.552Z,2.17
2022-08-05T00:32:13.435Z,2.33
2022-08-05T00:35:05.306Z,2.28
2022-08-05T00:37:35.894Z,3.13
2022-08-05T00:40:27.965Z,2.88
2022-08-05T00:43:02.491Z,2.53
2022-08-05T00:45:38.986Z,2.72
2022-08-05T00:48:31.179Z,3.30
2022-08-05T00:50:59.687Z,3.33
2022-08-05T00:53:45.017Z,2.65
2022-08-05T00:56:25.257Z,2.30
2022-08-05T00:58:53.629Z,2.30
2022-08-05T01:01:24.897Z,2.05
2022-08-05T01:04:13.675Z,2.83
2022-08-05T01:06:46.672Z,2.72
2022-08-05T01:09:17.303Z,2.40
2022-08-05T01:11:52.231Z,2.25
2022-08-05T01:14:27.229Z,2.13
2022-08-05T01:17:12.143Z,2.15
2022-08-05T01:20:02.240Z,2.45
2022-08-05T01:22:57.640Z,2.72
2022-08-05T01:25:57.160Z,2.00
2022-08-05T01:28:49.658Z,2.50
2022-08-05T01:31:20.492Z,2.40
2022-08-05T01:34:17.862Z,3.15
2022-08-05T01:37:07.275Z,2.42
2022-08-05T01:39:47.923Z,2.25
2022-08-05T01:42:20.755Z,2.20
2022-08-05T01:44:54.222Z,2.53
2022-08-05T01:47:39.254Z,2.63
2022-08-05T01:50:28.734Z,2.30
2022-08-05T01:53:02.967Z,2.60
2022-08-05T01:55:36.322Z,2.25
2022-08-05T01:58:29.946Z,2.67
2022-08-05T02:01:00.118Z,2.85
2022-08-05T02:03:51.610Z,2.28
2022-08-05T02:06:37.018Z,2.03
2022-08-05T02:09:07.464Z,2.42
2022-08-05T02:11:55.558Z,2.50
2022-08-05T02:14:57.815Z,2.20
2022-08-05T02:18:31.343Z,2.40
2022-08-05T02:20:40.166Z,2.23
2022-08-05T02:23:11.930Z,2.45
2022-08-05T02:25:50.066Z,2.22
2022-08-05T02:28:29.104Z,2.28
2022-08-05T02:31:07.894Z,2.05
2022-08-05T02:33:57.709Z,2.17
2022-08-05T02:36:31.375Z,2.20
2022-08-05T02:39:03.129Z,2.17
2022-08-05T02:41:42.914Z,2.60
2022-08-05T02:44:24.399Z,2.50
2022-08-05T02:46:59.862Z,2.53
2022-08-05T02:49:44.616Z,2.05
2022-08-05T02:52:25.874Z,2.50
2022-08-05T02:55:05.589Z,2.38
2022-08-05T02:58:10.570Z,2.45
2022-08-05T03:00:30.019Z,3.00
2022-08-05T03:03:00.115Z,3.10
2022-08-05T03:06:55.889Z,2.50
2022-08-05T03:08:19.543Z,2.47
2022-08-05T03:11:01.127Z,2.70
2022-08-05T03:13:51.630Z,2.60
2022-08-05T03:16:31.569Z,2.30
2022-08-05T03:19:01.490Z,2.38
2022-08-05T03:21:41.554Z,2.63
2022-08-05T03:24:26.848Z,3.88
2022-08-05T03:27:00.034Z,2.83
2022-08-05T03:29:46.029Z,2.40
2022-08-05T03:32:19.464Z,2.88
2022-08-05T03:34:50.653Z,2.78
2022-08-05T03:37:21.305Z,2.78
2022-08-05T03:40:01.920Z,2.80
2022-08-05T03:42:41.455Z,2.75
2022-08-05T03:45:21.706Z,2.83
2022-08-05T03:47:51.947Z,2.53
2022-08-05T03:50:32.399Z,2.45
2022-08-05T03:55:00.247Z,2.60
2022-08-05T03:56:26.848Z,2.45
2022-08-05T03:59:02.950Z,2.40
2022-08-05T04:01:35.515Z,2.30
2022-08-05T04:04:08.854Z,2.53
2022-08-05T04:06:47.774Z,2.55
2022-08-05T04:09:26.552Z,2.70
2022-08-05T04:11:57.104Z,2.38
2022-08-05T04:14:30.495Z,2.72
2022-08-05T04:17:06.177Z,2.45
2022-08-05T04:19:43.120Z,2.70
2022-08-05T04:22:14.215Z,2.50
2022-08-05T04:24:52.507Z,2.35
2022-08-05T04:27:41.640Z,1.93
2022-08-05T04:30:10.521Z,2.20
2022-08-05T04:32:38.994Z,2.55
2022-08-05T04:35:17.380Z,2.00
2022-08-05T04:38:02.089Z,2.42
2022-08-05T04:40:36.339Z,2.72
2022-08-05T04:43:05.297Z,2.25
2022-08-05T04:45:49.062Z,2.60
2022-08-05T04:48:27.287Z,2.28
2022-08-05T04:51:03.574Z,2.30
2022-08-05T04:53:38.992Z,2.63
2022-08-05T04:56:33.983Z,2.83
2022-08-05T04:58:57.076Z,2.72
2022-08-05T05:01:33.441Z,2.80
2022-08-05T05:04:02.107Z,2.72
2022-08-05T05:06:40.039Z,2.63
2022-08-05T05:09:16.899Z,2.83
2022-08-05T05:11:53.106Z,3.35
2022-08-05T05:14:31.344Z,3.13
2022-08-05T05:17:01.211Z,3.08
2022-08-05T05:19:36.858Z,2.88
2022-08-05T05:22:23.489Z,2.70
2022-08-05T05:24:57.110Z,2.70
2022-08-05T05:27:41.217Z,2.35
2022-08-05T05:30:15.484Z,2.40
2022-08-05T05:33:00.622Z,2.63
2022-08-05T05:35:37.609Z,2.60
2022-08-05T05:38:13.819Z,2.50
2022-08-05T05:40:49.866Z,2.50
2022-08-05T05:43:27.662Z,2.67
2022-08-05T05:46:16.097Z,2.90
2022-08-05T05:48:47.841Z,2.58
2022-08-05T05:51:28.077Z,2.97
2022-08-05T05:53:59.823Z,2.72
2022-08-05T05:56:33.161Z,2.63
2022-08-05T05:59:07.752Z,2.72
2022-08-05T06:01:39.319Z,2.88
2022-08-05T06:04:14.481Z,2.70
2022-08-05T06:06:47.303Z,2.63
2022-08-05T06:09:25.402Z,3.85
2022-08-05T06:12:04.907Z,2.90
2022-08-05T06:14:34.869Z,2.85
2022-08-05T06:17:32.250Z,2.38
2022-08-05T06:19:57.070Z,2.80
2022-08-05T06:22:33.548Z,2.72
2022-08-05T06:25:59.173Z,3.03
2022-08-05T06:28:12.249Z,2.85
2022-08-05T06:30:41.331Z,3.10
2022-08-05T06:33:09.903Z,2.90
2022-08-05T06:36:05.782Z,2.80
2022-08-05T06:38:35.816Z,2.58
2022-08-05T06:41:08.015Z,2.65
2022-08-05T06:43:58.221Z,2.53
2022-08-05T06:46:29.898Z,2.88
2022-08-05T06:49:01.232Z,2.72
2022-08-05T06:51:31.338Z,2.92
2022-08-05T06:54:02.256Z,2.47
2022-08-05T06:56:35.230Z,2.45
2022-08-05T06:59:08.394Z,2.60
2022-08-05T07:01:40.740Z,2.47
2022-08-05T07:04:11.218Z,2.08
2022-08-05T07:06:42.859Z,2.55
2022-08-05T07:09:11.157Z,2.40
2022-08-05T07:11:39.982Z,2.30
2022-08-05T07:14:30.038Z,2.22
2022-08-05T07:18:00.457Z,2.00
2022-08-05T07:20:31.189Z,2.60
2022-08-05T07:22:39.482Z,2.60
2022-08-05T07:25:23.981Z,2.45
2022-08-05T07:28:07.259Z,2.75
2022-08-05T07:30:39.889Z,2.17
2022-08-05T07:33:16.479Z,3.42
2022-08-05T07:36:01.939Z,2.83
2022-08-05T07:38:42.858Z,2.53
2022-08-05T07:42:07.915Z,2.38
2022-08-05T07:44:14.505Z,2.25
2022-08-05T07:46:49.515Z,3.17
2022-08-05T07:49:18.944Z,5.40
2022-08-05T07:51:53.896Z,3.45
2022-08-05T07:54:31.744Z,2.80
2022-08-05T07:57:17.996Z,2.30
2022-08-05T07:59:53.897Z,2.60
2022-08-05T08:02:31.197Z,2.42
2022-08-05T08:05:18.282Z,2.17
2022-08-05T08:07:59.827Z,2.00
2022-08-05T08:10:31.561Z,2.90
2022-08-05T08:13:01.720Z,2.22
2022-08-05T08:16:33.657Z,2.30
2022-08-05T08:18:20.883Z,2.80
2022-08-05T08:21:02.872Z,2.10
2022-08-05T08:24:02.441Z,2.35
2022-08-05T08:26:29.555Z,2.17
2022-08-05T08:29:02.353Z,2.20
2022-08-05T08:31:48.645Z,2.25
2022-08-05T08:34:30.147Z,2.70
2022-08-05T08:37:04.724Z,2.25
2022-08-05T08:39:37.348Z,2.28
2022-08-05T08:42:27.578Z,2.10
2022-08-05T08:45:24.311Z,2.40
2022-08-05T08:48:06.746Z,2.65
2022-08-05T08:51:03.751Z,2.47
2022-08-05T08:53:35.464Z,2.30
2022-08-05T08:56:06.995Z,2.05
2022-08-05T08:58:43.370Z,2.60
2022-08-05T09:01:17.950Z,2.92
2022-08-05T09:03:55.712Z,2.55
2022-08-05T09:06:29.857Z,2.67
2022-08-05T09:09:01.179Z,2.10
2022-08-05T09:11:50.911Z,2.70
2022-08-05T09:14:57.338Z,2.38
2022-08-05T09:17:41.393Z,2.50
2022-08-05T09:20:08.824Z,2.50
2022-08-05T09:23:07.623Z,2.47
2022-08-05T09:26:01.560Z,2.40
2022-08-05T09:28:32.381Z,3.38
2022-08-05T09:31:43.353Z,2.58
2022-08-05T09:34:06.854Z,2.45
2022-08-05T09:36:54.143Z,2.28
2022-08-05T09:39:39.441Z,2.25
2022-08-05T09:42:24.329Z,2.10
2022-08-05T09:46:04.994Z,2.47
2022-08-05T09:47:56.547Z,2.30
2022-08-05T09:50:44.627Z,2.08
2022-08-05T09:53:23.022Z,2.65
2022-08-05T09:56:04.896Z,1.90
2022-08-05T09:58:41.811Z,2.30
2022-08-05T10:01:32.104Z,1.75
2022-08-05T10:04:03.536Z,1.95
2022-08-05T10:06:33.006Z,1.85
2022-08-05T10:09:28.279Z,2.22
2022-08-05T10:12:28.418Z,2.50
2022-08-05T10:15:20.841Z,2.10
2022-08-05T10:18:16.854Z,2.95
2022-08-05T10:20:49.873Z,2.50
2022-08-05T10:23:55.646Z,2.25
2022-08-05T10:26:19.617Z,1.80
2022-08-05T10:28:59.931Z,1.88
2022-08-05T10:32:54.989Z,2.30
2022-08-05T10:34:16.968Z,2.03
2022-08-05T10:36:45.726Z,2.20
2022-08-05T10:40:03.401Z,1.92
2022-08-05T10:42:33.958Z,2.15
2022-08-05T10:45:21.589Z,2.30
2022-08-05T10:48:29.904Z,2.17
2022-08-05T10:51:04.024Z,2.05
2022-08-05T10:53:42.597Z,2.10
2022-08-05T10:56:25.212Z,1.75
2022-08-05T10:58:53.976Z,2.10
2022-08-05T11:01:54.248Z,1.90
2022-08-05T11:04:26.356Z,1.98
2022-08-05T11:06:58.028Z,2.33
2022-08-05T11:09:39.333Z,2.10
2022-08-05T11:12:45.392Z,1.98
2022-08-05T11:15:20.321Z,2.10
2022-08-05T11:17:59.624Z,2.05
2022-08-05T11:20:41.670Z,1.75
2022-08-05T11:24:03.383Z,1.98
2022-08-05T11:26:28.953Z,2.47
2022-08-05T11:29:14.054Z,2.20
2022-08-05T11:31:54.183Z,2.17
2022-08-05T11:34:47.429Z,2.42
2022-08-05T11:38:29.986Z,2.17
2022-08-05T11:41:34.206Z,2.47
2022-08-05T11:44:08.267Z,2.28
2022-08-05T11:47:09.949Z,2.38
2022-08-05T11:49:36.352Z,2.70
2022-08-05T11:52:08.460Z,2.55
2022-08-05T11:54:41.596Z,2.45
2022-08-05T11:57:24.785Z,2.65
2022-08-05T11:59:57.104Z,2.10
2022-08-05T12:02:31.926Z,2.90
2022-08-05T12:05:08.078Z,2.50
2022-08-05T12:08:09.560Z,2.10
2022-08-05T12:10:45.955Z,2.60
2022-08-05T12:13:27.809Z,2.60
2022-08-05T12:16:14.813Z,2.50
2022-08-05T12:18:49.426Z,2.42
2022-08-05T12:21:23.760Z,2.40
2022-08-05T12:24:04.562Z,2.80
2022-08-05T12:26:44.300Z,2.47
2022-08-05T12:29:16.249Z,2.50
2022-08-05T12:31:54.548Z,2.50
2022-08-05T12:34:28.485Z,2.42
2022-08-05T12:37:00.012Z,2.40
2022-08-05T12:39:37.268Z,2.50
2022-08-05T12:42:17.366Z,2.47
2022-08-05T12:44:47.515Z,2.75
2022-08-05T12:47:31.066Z,2.42
2022-08-05T12:50:04.098Z,2.25
2022-08-05T12:52:38.918Z,2.50
2022-08-05T12:55:22.323Z,2.58
2022-08-05T12:58:38.632Z,2.47
2022-08-05T13:02:03.140Z,2.55
2022-08-05T13:03:41.991Z,2.88
2022-08-05T13:06:17.529Z,2.70
2022-08-05T13:08:51.740Z,2.70
2022-08-05T13:12:02.617Z,2.92
2022-08-05T13:14:36.241Z,3.00
2022-08-05T13:17:31.902Z,2.72
2022-08-05T13:20:16.503Z,2.60
2022-08-05T13:22:51.543Z,2.58
2022-08-05T13:25:52.837Z,2.67
2022-08-05T13:28:12.892Z,2.92
2022-08-05T13:30:42.507Z,2.45
2022-08-05T13:33:14.355Z,2.83
2022-08-05T13:36:01.856Z,3.05
2022-08-05T13:38:35.998Z,2.88
2022-08-05T13:41:06.681Z,3.60
2022-08-05T13:43:44.957Z,3.03
2022-08-05T13:46:43.697Z,2.95
2022-08-05T13:49:12.867Z,2.83
2022-08-05T13:51:45.890Z,2.80
2022-08-05T13:54:21.165Z,2.70
2022-08-05T13:56:53.675Z,3.10
2022-08-05T13:59:26.937Z,2.95
2022-08-05T14:02:00.034Z,2.88
2022-08-05T14:05:00.714Z,3.22
2022-08-05T14:08:00.083Z,2.92
2022-08-05T14:10:28.897Z,3.30
2022-08-05T14:12:59.885Z,2.38
2022-08-05T14:16:04.532Z,3.45
2022-08-05T14:18:18.135Z,3.08
2022-08-05T14:20:54.442Z,3.20
2022-08-05T14:23:25.694Z,2.60
2022-08-05T14:25:59.593Z,3.20
2022-08-05T14:28:31.346Z,3.00
2022-08-05T14:31:00.405Z,2.70
2022-08-05T14:33:32.452Z,2.60
2022-08-05T14:36:21.450Z,3.05
2022-08-05T14:38:51.042Z,3.13
2022-08-05T14:41:19.839Z,2.97
2022-08-05T14:44:02.698Z,3.03
2022-08-05T14:46:40.709Z,3.25
2022-08-05T14:49:08.987Z,3.58
2022-08-05T14:51:42.595Z,2.92
2022-08-05T14:54:27.602Z,2.70
2022-08-05T14:57:01.075Z,3.08
2022-08-05T14:59:35.846Z,3.55
2022-08-05T15:02:15.815Z,3.00
2022-08-05T15:04:47.828Z,2.85
2022-08-05T15:08:10.866Z,3.30
2022-08-05T15:10:09.610Z,3.95
2022-08-05T15:12:59.846Z,3.20
2022-08-05T15:15:54.029Z,3.55
2022-08-05T15:18:17.255Z,3.47
2022-08-05T15:20:46.119Z,2.88
2022-08-05T15:23:15.495Z,2.97
2022-08-05T15:25:53.364Z,3.22
2022-08-05T15:28:27.620Z,3.47
2022-08-05T15:30:56.811Z,3.45
2022-08-05T15:34:18.479Z,3.30
2022-08-05T15:36:17.781Z,3.35
2022-08-05T15:40:41.631Z,3.70
2022-08-05T15:41:57.241Z,3.03
2022-08-05T15:44:28.137Z,2.80
2022-08-05T15:47:01.141Z,3.80
2022-08-05T15:49:42.198Z,3.10
2022-08-05T15:52:52.641Z,2.90
2022-08-05T15:55:16.244Z,3.17
2022-08-05T15:57:45.995Z,3.50
2022-08-05T16:00:32.491Z,3.45
2022-08-05T16:03:06.482Z,4.22
2022-08-05T16:05:34.880Z,2.95
2022-08-05T16:08:07.193Z,3.33
2022-08-05T16:10:36.363Z,3.47
2022-08-05T16:13:04.604Z,3.28
2022-08-05T16:15:34.697Z,3.47
2022-08-05T16:18:04.292Z,3.50
2022-08-05T16:20:37.348Z,3.53
2022-08-05T16:23:09.274Z,3.40
2022-08-05T16:25:41.425Z,3.10
2022-08-05T16:28:10.502Z,4.20
2022-08-05T16:30:39.108Z,3.05
2022-08-05T16:33:09.726Z,3.80
2022-08-05T16:35:42.429Z,3.45
2022-08-05T16:38:24.166Z,3.13
2022-08-05T16:43:34.702Z,3.45
2022-08-05T16:46:12.628Z,3.10
2022-08-05T16:48:41.392Z,3.65
2022-08-05T16:51:11.165Z,3.47
2022-08-05T16:54:04.180Z,3.20
2022-08-05T16:56:31.063Z,3.53
2022-08-05T16:59:08.347Z,3.88
2022-08-05T17:01:52.877Z,4.30
2022-08-05T17:04:27.293Z,3.63
2022-08-05T17:07:03.117Z,3.45
2022-08-05T17:09:39.030Z,3.17
2022-08-05T17:12:22.614Z,4.00
2022-08-05T17:15:09.488Z,3.63
2022-08-05T17:17:44.394Z,3.83
2022-08-05T17:20:14.730Z,3.92
2022-08-05T17:22:43.449Z,4.45
2022-08-05T17:25:22.552Z,3.75
2022-08-05T17:28:01.820Z,3.97
2022-08-05T17:30:30.160Z,3.60
2022-08-05T17:33:01.512Z,3.50
2022-08-05T17:35:32.641Z,4.07
2022-08-05T17:38:18.281Z,3.38
2022-08-05T17:40:47.661Z,3.30
2022-08-05T17:43:17.924Z,3.28
2022-08-05T17:46:06.198Z,3.10
2022-08-05T17:48:38.503Z,3.20
2022-08-05T17:51:09.330Z,3.10
2022-08-05T17:53:37.754Z,3.05
2022-08-05T17:56:06.623Z,3.50
2022-08-05T17:58:37.715Z,3.20
2022-08-05T18:01:08.176Z,3.10
2022-08-05T18:03:58.348Z,3.30
2022-08-05T18:06:29.329Z,3.50
2022-08-05T18:08:59.467Z,3.38
2022-08-05T18:11:32.909Z,3.40
2022-08-05T18:14:03.485Z,3.60
2022-08-05T18:16:33.325Z,4.10
2022-08-05T18:19:02.397Z,3.50
2022-08-05T18:22:07.503Z,3.60
2022-08-05T18:24:19.048Z,3.88
2022-08-05T18:26:49.268Z,3.60
2022-08-05T18:29:17.569Z,3.42
2022-08-05T18:32:06.104Z,3.67
2022-08-05T18:34:41.046Z,3.50
2022-08-05T18:37:12.047Z,4.30
2022-08-05T18:40:34.275Z,4.28
2022-08-05T18:42:32.185Z,3.67
2022-08-05T18:45:00.392Z,3.65
2022-08-05T18:47:31.075Z,3.70
2022-08-05T18:50:21.125Z,3.53
2022-08-05T18:53:15.617Z,4.18
2022-08-05T18:55:52.101Z,3.22
2022-08-05T18:58:27.216Z,4.03
2022-08-05T19:00:57.843Z,3.47
2022-08-05T19:03:54.910Z,3.92
2022-08-05T19:06:20.114Z,3.38
2022-08-05T19:08:50.764Z,4.03
2022-08-05T19:11:21.924Z,3.58
2022-08-05T19:14:01.016Z,3.80
2022-08-05T19:16:46.895Z,3.80
2022-08-05T19:19:15.567Z,4.00
2022-08-05T19:21:51.562Z,3.30
2022-08-05T19:24:34.127Z,3.95
2022-08-05T19:27:04.416Z,3.10
2022-08-05T19:29:35.918Z,3.40
2022-08-05T19:32:08.611Z,3.65
2022-08-05T19:34:39.891Z,3.42
2022-08-05T19:37:10.048Z,3.10
2022-08-05T19:39:45.866Z,3.20
2022-08-05T19:42:35.029Z,3.28
2022-08-05T19:45:06.561Z,3.00
2022-08-05T19:47:40.284Z,3.47
2022-08-05T19:50:11.808Z,2.72
2022-08-05T19:52:40.805Z,3.03
2022-08-05T19:56:14.629Z,2.72
2022-08-05T19:58:14.193Z,2.70
2022-08-05T20:00:47.493Z,2.80
2022-08-05T20:03:16.004Z,2.80
2022-08-05T20:05:50.398Z,2.42
2022-08-05T20:08:24.281Z,2.47
2022-08-05T20:10:53.804Z,2.20
2022-08-05T20:13:29.862Z,2.67
2022-08-05T20:15:59.777Z,2.95
2022-08-05T20:18:33.120Z,2.47
2022-08-05T20:21:05.165Z,3.03
2022-08-05T20:23:51.029Z,2.58
2022-08-05T20:26:21.634Z,2.50
2022-08-05T20:28:55.793Z,3.35
2022-08-05T20:31:37.333Z,2.58
2022-08-05T20:34:14.871Z,3.08
2022-08-05T20:36:43.842Z,2.50
2022-08-05T20:39:16.389Z,2.78
2022-08-05T20:44:30.129Z,2.92
2022-08-05T20:47:04.379Z,2.53
2022-08-05T20:49:39.743Z,2.40
2022-08-05T20:52:08.893Z,2.50
2022-08-05T20:54:59.805Z,2.53
2022-08-05T20:57:42.973Z,2.50
2022-08-05T21:00:41.139Z,2.33
2022-08-05T21:03:07.093Z,2.67
2022-08-05T21:05:54.034Z,3.00
2022-08-05T21:08:41.398Z,3.00
2022-08-05T21:11:12.408Z,2.80
2022-08-05T21:13:47.882Z,2.55
2022-08-05T21:16:29.325Z,2.72
2022-08-05T21:19:00.855Z,2.80
2022-08-05T21:21:38.970Z,2.60
2022-08-05T21:24:09.895Z,2.50
2022-08-05T21:29:12.652Z,2.65
2022-08-05T21:31:45.030Z,2.63
2022-08-05T21:34:15.782Z,2.47
2022-08-05T21:36:46.632Z,2.80
2022-08-05T21:39:26.333Z,2.63
2022-08-05T21:42:02.028Z,2.83
2022-08-05T21:44:31.959Z,2.90
2022-08-05T21:47:00.620Z,2.67
2022-08-05T21:50:00.131Z,3.45
2022-08-05T21:52:27.775Z,2.80
2022-08-05T21:55:06.061Z,2.78
2022-08-05T21:57:36.254Z,3.15
2022-08-05T22:00:11.373Z,2.83
2022-08-05T22:02:43.527Z,2.70
2022-08-05T22:05:14.503Z,2.60
2022-08-05T22:07:59.427Z,2.85
2022-08-05T22:10:30.979Z,2.72
2022-08-05T22:13:21.975Z,2.95
2022-08-05T22:16:01.845Z,3.30
2022-08-05T22:18:35.977Z,2.90
2022-08-05T22:21:19.466Z,3.28
2022-08-05T22:24:08.967Z,3.05
2022-08-05T22:27:00.031Z,3.00
2022-08-05T22:29:30.807Z,3.13
2022-08-05T22:32:04.096Z,3.20
2022-08-05T22:34:33.607Z,2.90
2022-08-05T22:37:04.029Z,3.40
2022-08-05T22:39:34.528Z,3.13
2022-08-05T22:42:12.232Z,3.15
2022-08-05T22:44:53.618Z,3.33
2022-08-05T22:47:28.972Z,3.42
2022-08-05T22:50:19.552Z,3.17
2022-08-05T22:52:50.002Z,3.08
2022-08-05T22:55:21.502Z,3.10
2022-08-05T22:57:51.807Z,3.50
2022-08-05T23:00:22.993Z,4.30
2022-08-05T23:02:53.524Z,3.08
2022-08-05T23:05:22.913Z,3.17
2022-08-05T23:07:51.780Z,3.40
2022-08-05T23:10:23.923Z,3.20
2022-08-05T23:12:55.080Z,3.17
2022-08-05T23:15:27.159Z,3.35
2022-08-05T23:18:02.159Z,2.72
2022-08-05T23:20:33.474Z,2.90
2022-08-05T23:23:08.180Z,2.90
2022-08-05T23:25:53.630Z,2.75
2022-08-05T23:28:28.935Z,2.65
2022-08-05T23:31:16.386Z,2.50
2022-08-05T23:34:04.083Z,2.63
2022-08-05T23:36:38.533Z,2.70
2022-08-05T23:39:08.350Z,3.25
2022-08-05T23:41:37.344Z,3.03
2022-08-05T23:44:09.633Z,2.67
2022-08-05T23:46:39.379Z,2.80
2022-08-05T23:49:16.993Z,3.85
2022-08-05T23:52:09.355Z,2.60
2022-08-05T23:54:38.496Z,2.78
2022-08-05T23:57:07.407Z,2.45
